Time;durP1;ratioP1;P1;durP2;ratioP2;P2;SDS_P1;SDS_P2;PMS_P1;PMS_P2;Temp;Humidity;BMP_temperature;BMP_pressure;BME280_temperature;BME280_humidity;BME280_pressure;Samples;Min_cycle;Max_cycle;Signal;HPM_P1;HPM_P2
2021/05/02 00:01:56;;;;;;;3.10;2.40;;;23.30;29.30;;;;;;5014356;28;20050;-50
2021/05/02 00:04:22;;;;;;;3.08;2.53;;;23.30;29.30;;;;;;5012292;28;20381;-45
2021/05/02 00:06:48;;;;;;;4.03;2.63;;;23.30;29.30;;;;;;5014217;28;20049;-48
2021/05/02 00:09:13;;;;;;;3.38;2.25;;;23.30;29.30;;;;;;5013457;28;20026;-49
2021/05/02 00:11:39;;;;;;;3.20;2.22;;;23.20;29.30;;;;;;5014524;28;20109;-45
2021/05/02 00:14:05;;;;;;;2.28;2.08;;;23.30;29.30;;;;;;5013777;28;20041;-47
2021/05/02 00:16:32;;;;;;;2.80;2.17;;;23.20;29.30;;;;;;5014441;28;20026;-48
2021/05/02 00:18:58;;;;;;;2.50;2.30;;;23.20;29.30;;;;;;5013216;28;20076;-50
2021/05/02 00:21:25;;;;;;;3.22;2.45;;;23.20;29.30;;;;;;5013287;28;20475;-50
2021/05/02 00:23:51;;;;;;;2.70;2.00;;;23.30;29.30;;;;;;5013875;28;20429;-49
2021/05/02 00:26:17;;;;;;;2.97;2.17;;;23.30;29.30;;;;;;5013744;28;20037;-47
2021/05/02 00:28:51;;;;;;;2.47;2.00;;;23.20;29.30;;;;;;5013342;28;20045;-50
2021/05/02 00:31:18;;;;;;;2.78;2.50;;;23.20;29.30;;;;;;5014116;28;20040;-49
2021/05/02 00:33:45;;;;;;;2.25;2.05;;;23.20;29.30;;;;;;5013136;28;20377;-47
2021/05/02 00:36:12;;;;;;;2.95;2.25;;;23.20;29.30;;;;;;5013699;28;20033;-49
2021/05/02 00:38:40;;;;;;;2.50;2.00;;;23.20;29.30;;;;;;5013509;28;20225;-47
2021/05/02 00:41:10;;;;;;;2.47;2.00;;;23.20;29.30;;;;;;5004037;28;20034;-49
2021/05/02 00:43:57;;;;;;;2.17;1.80;;;23.20;29.20;;;;;;5013158;28;20421;-51
2021/05/02 00:46:49;;;;;;;1.70;1.60;;;23.20;29.20;;;;;;4995005;28;20038;-49
2021/05/02 00:49:38;;;;;;;2.50;1.70;;;23.10;29.20;;;;;;5012896;28;20045;-51
2021/05/02 00:52:14;;;;;;;2.50;1.90;;;23.10;29.20;;;;;;5003759;28;20034;-49
2021/05/02 00:54:49;;;;;;;2.33;1.80;;;23.10;29.20;;;;;;5013557;28;20045;-49
2021/05/02 00:57:25;;;;;;;2.03;1.50;;;23.10;29.30;;;;;;5000757;28;20054;-51
2021/05/02 01:00:09;;;;;;;2.80;1.90;;;23.10;29.20;;;;;;5013007;28;20030;-49
2021/05/02 01:02:36;;;;;;;2.35;1.75;;;23.10;29.20;;;;;;5013507;28;20041;-47
2021/05/02 01:05:12;;;;;;;2.42;1.77;;;23.10;29.20;;;;;;5016674;28;20341;-48
2021/05/02 01:07:40;;;;;;;2.78;2.00;;;23.10;29.20;;;;;;5016468;28;20105;-49
2021/05/02 01:10:12;;;;;;;2.05;1.63;;;23.10;29.20;;;;;;5016498;28;20121;-47
2021/05/02 01:12:43;;;;;;;2.13;1.30;;;23.10;29.20;;;;;;5016881;28;20026;-52
2021/05/02 01:15:15;;;;;;;1.80;1.42;;;23.10;29.20;;;;;;5016697;28;20148;-51
2021/05/02 01:17:42;;;;;;;1.95;1.38;;;23.10;29.20;;;;;;5016505;28;20473;-47
2021/05/02 01:20:12;;;;;;;3.65;1.55;;;23.10;29.20;;;;;;5016326;28;20453;-44
2021/05/02 01:22:40;;;;;;;2.35;1.80;;;23.10;29.20;;;;;;5016894;28;20044;-45
2021/05/02 01:25:07;;;;;;;1.98;1.20;;;23.10;29.20;;;;;;5014907;28;20061;-46
2021/05/02 01:27:33;;;;;;;1.65;1.42;;;23.10;29.10;;;;;;5017046;28;20335;-49
2021/05/02 01:30:01;;;;;;;1.35;1.20;;;23.00;29.10;;;;;;5015398;28;20030;-46
2021/05/02 01:32:27;;;;;;;1.60;1.25;;;23.00;29.60;;;;;;5016450;28;20026;-52
2021/05/02 01:34:54;;;;;;;1.60;1.27;;;23.10;29.10;;;;;;5016044;28;20030;-44
2021/05/02 01:37:21;;;;;;;2.53;1.70;;;23.00;29.10;;;;;;5016658;28;20041;-49
2021/05/02 01:39:47;;;;;;;1.95;1.52;;;23.00;29.00;;;;;;5016024;28;20072;-45
2021/05/02 01:42:13;;;;;;;1.90;1.33;;;23.00;29.10;;;;;;5016644;28;20073;-45
2021/05/02 01:44:39;;;;;;;2.47;1.23;;;23.00;29.00;;;;;;5015708;28;20469;-51
2021/05/02 01:47:09;;;;;;;2.00;1.40;;;23.00;29.00;;;;;;5015308;28;20472;-50
2021/05/02 01:49:42;;;;;;;1.90;1.15;;;23.00;29.00;;;;;;5015585;28;20033;-46
2021/05/02 01:52:08;;;;;;;1.40;1.13;;;23.00;29.00;;;;;;5009720;28;20037;-50
2021/05/02 01:54:36;;;;;;;1.80;1.05;;;23.00;29.00;;;;;;5015950;28;20462;-46
2021/05/02 01:57:03;;;;;;;1.85;1.10;;;23.00;29.00;;;;;;5014929;28;20050;-45
2021/05/02 01:59:29;;;;;;;1.60;1.13;;;23.00;29.00;;;;;;5016197;28;20044;-50
2021/05/02 02:01:56;;;;;;;1.45;1.15;;;23.00;29.10;;;;;;5015435;28;20356;-46
2021/05/02 02:04:28;;;;;;;1.38;1.10;;;23.00;29.00;;;;;;5015999;28;20029;-48
2021/05/02 02:06:56;;;;;;;2.10;1.25;;;23.00;29.00;;;;;;5013602;28;20045;-47
2021/05/02 02:09:22;;;;;;;1.30;1.00;;;22.90;29.00;;;;;;5015401;28;20036;-48
2021/05/02 02:11:52;;;;;;;1.52;1.15;;;22.90;29.00;;;;;;5015152;28;20437;-51
2021/05/02 02:14:18;;;;;;;1.23;0.93;;;22.90;29.00;;;;;;5015256;28;20045;-46
2021/05/02 02:16:45;;;;;;;1.15;0.93;;;22.90;29.00;;;;;;5015689;28;20041;-46
2021/05/02 02:19:11;;;;;;;1.40;1.20;;;22.90;28.90;;;;;;5014437;28;20065;-45
2021/05/02 02:21:37;;;;;;;1.92;0.90;;;22.90;28.90;;;;;;5014896;28;20385;-48
2021/05/02 02:24:04;;;;;;;1.55;1.00;;;22.90;28.90;;;;;;5014124;28;20033;-46
2021/05/02 02:26:42;;;;;;;1.30;0.93;;;22.90;28.90;;;;;;4996274;28;20342;-49
2021/05/02 02:29:12;;;;;;;1.10;1.00;;;22.90;28.80;;;;;;5015736;28;20041;-51
2021/05/02 02:31:42;;;;;;;1.33;0.88;;;22.90;28.80;;;;;;5015200;28;20359;-45
2021/05/02 02:34:09;;;;;;;1.70;1.08;;;22.90;28.80;;;;;;5015251;28;20034;-51
2021/05/02 02:36:34;;;;;;;1.10;0.80;;;22.90;28.80;;;;;;5014775;28;20025;-46
2021/05/02 02:39:01;;;;;;;1.17;1.00;;;22.90;28.80;;;;;;5014773;28;20104;-50
2021/05/02 02:41:28;;;;;;;2.92;1.00;;;22.90;28.80;;;;;;5009201;28;20345;-49
2021/05/02 02:43:58;;;;;;;1.17;0.85;;;22.80;28.70;;;;;;5015346;28;20044;-49
2021/05/02 02:46:27;;;;;;;1.33;0.88;;;22.90;28.70;;;;;;5013984;28;20046;-45
2021/05/02 02:48:58;;;;;;;1.65;0.80;;;22.80;28.70;;;;;;5015161;28;20034;-50
2021/05/02 02:51:25;;;;;;;1.23;0.90;;;22.80;28.70;;;;;;5014867;28;20034;-50
2021/05/02 02:53:52;;;;;;;1.33;0.93;;;22.80;28.70;;;;;;5015368;28;20068;-47
2021/05/02 02:56:20;;;;;;;0.73;0.65;;;22.80;28.70;;;;;;5013938;28;20073;-49
2021/05/02 02:58:57;;;;;;;0.98;0.77;;;22.80;28.70;;;;;;5014746;28;20034;-48
2021/05/02 03:01:25;;;;;;;0.80;0.80;;;22.80;28.70;;;;;;5014822;28;20022;-49
2021/05/02 03:04:05;;;;;;;1.20;0.77;;;22.80;28.70;;;;;;5014826;28;20098;-50
2021/05/02 03:06:34;;;;;;;1.45;0.80;;;22.80;28.70;;;;;;5013860;28;20095;-49
2021/05/02 03:09:01;;;;;;;1.38;0.88;;;22.80;28.70;;;;;;5014864;28;20072;-48
2021/05/02 03:11:26;;;;;;;0.75;0.75;;;22.80;28.70;;;;;;5013930;28;20103;-50
2021/05/02 03:13:56;;;;;;;1.30;0.90;;;22.80;28.70;;;;;;5014462;28;20038;-46
2021/05/02 03:16:29;;;;;;;1.25;1.08;;;22.80;28.70;;;;;;5014541;28;20037;-51
2021/05/02 03:19:17;;;;;;;1.73;0.98;;;22.80;28.70;;;;;;5013215;28;20050;-48
2021/05/02 03:22:01;;;;;;;1.55;0.80;;;22.80;28.80;;;;;;5014619;28;20026;-49
2021/05/02 03:24:31;;;;;;;1.33;0.80;;;22.80;28.80;;;;;;5014222;28;20444;-50
2021/05/02 03:27:06;;;;;;;1.33;0.60;;;22.70;28.80;;;;;;5013470;28;20365;-50
2021/05/02 03:29:40;;;;;;;1.20;0.90;;;22.80;28.80;;;;;;5014369;28;20044;-51
2021/05/02 03:32:08;;;;;;;1.27;0.90;;;22.80;28.80;;;;;;5013941;28;20044;-52
2021/05/02 03:34:39;;;;;;;1.35;0.70;;;22.70;28.80;;;;;;5014161;28;20117;-48
2021/05/02 03:37:09;;;;;;;0.98;0.70;;;22.70;28.80;;;;;;5014357;28;20030;-49
2021/05/02 03:39:37;;;;;;;1.20;0.93;;;22.70;28.90;;;;;;5014545;28;20354;-49
2021/05/02 03:42:03;;;;;;;1.48;0.80;;;22.70;28.80;;;;;;5013642;28;20411;-53
2021/05/02 03:44:29;;;;;;;1.55;0.80;;;22.70;28.80;;;;;;5012776;28;20045;-50
2021/05/02 03:46:55;;;;;;;1.20;0.70;;;22.70;29.30;;;;;;5012661;28;20050;-44
2021/05/02 03:49:20;;;;;;;1.08;0.65;;;22.70;28.80;;;;;;5014202;28;20446;-49
2021/05/02 03:51:46;;;;;;;1.45;0.77;;;22.70;28.80;;;;;;5012527;28;20022;-46
2021/05/02 03:54:12;;;;;;;1.23;0.70;;;22.70;28.90;;;;;;5014097;28;20113;-49
2021/05/02 03:56:40;;;;;;;1.20;0.70;;;22.70;28.90;;;;;;5013403;28;20069;-50
2021/05/02 03:59:15;;;;;;;1.27;0.80;;;22.70;28.90;;;;;;5012598;28;20431;-51
2021/05/02 04:01:50;;;;;;;1.10;0.68;;;22.70;28.90;;;;;;5014142;28;20053;-51
2021/05/02 04:04:17;;;;;;;;;;;22.70;28.90;;;;;;5014101;28;20025;-49
2021/05/02 04:06:43;;;;;;;1.27;0.50;;;22.70;28.90;;;;;;5013514;28;19928;-50
2021/05/02 04:09:10;;;;;;;1.58;0.70;;;22.60;28.90;;;;;;5014170;28;20030;-54
2021/05/02 04:11:37;;;;;;;1.38;0.80;;;22.60;28.80;;;;;;5013658;28;20141;-48
2021/05/02 04:14:09;;;;;;;1.38;0.82;;;22.60;28.80;;;;;;5013853;28;20041;-49
2021/05/02 04:16:36;;;;;;;0.85;0.60;;;22.60;28.80;;;;;;5013780;28;20030;-49
2021/05/02 04:19:04;;;;;;;1.27;0.60;;;22.60;28.90;;;;;;5013918;28;20044;-48
2021/05/02 04:21:30;;;;;;;0.75;0.60;;;22.60;28.80;;;;;;5013648;28;20041;-50
2021/05/02 04:23:56;;;;;;;0.82;0.65;;;22.70;28.90;;;;;;5012172;28;20061;-53
2021/05/02 04:26:22;;;;;;;2.38;0.80;;;22.60;28.80;;;;;;5013140;28;20484;-48
2021/05/02 04:28:49;;;;;;;1.60;0.80;;;22.60;28.80;;;;;;5013974;28;20030;-49
2021/05/02 04:31:15;;;;;;;1.13;0.75;;;22.60;28.80;;;;;;5013764;28;20084;-54
2021/05/02 04:33:41;;;;;;;0.93;0.70;;;22.60;28.80;;;;;;5013704;28;20034;-52
2021/05/02 04:36:07;;;;;;;0.77;0.65;;;22.60;28.80;;;;;;5013107;28;20053;-50
2021/05/02 04:38:33;;;;;;;1.02;0.60;;;22.60;28.80;;;;;;5015532;28;20037;-47
2021/05/02 04:41:00;;;;;;;0.80;0.60;;;22.60;28.80;;;;;;5016016;28;20034;-50
2021/05/02 04:43:26;;;;;;;0.63;0.43;;;22.60;28.90;;;;;;5016860;28;20037;-52
2021/05/02 04:45:52;;;;;;;1.00;0.50;;;22.60;28.90;;;;;;5016985;28;20053;-49
2021/05/02 04:48:17;;;;;;;0.90;0.55;;;22.60;28.80;;;;;;5017022;28;20034;-50
2021/05/02 04:50:43;;;;;;;0.75;0.60;;;22.60;28.80;;;;;;5015670;28;20026;-56
2021/05/02 04:53:09;;;;;;;1.02;0.70;;;22.60;28.80;;;;;;5017051;28;20034;-47
2021/05/02 04:55:35;;;;;;;1.35;0.60;;;22.50;28.80;;;;;;5015944;28;20045;-49
2021/05/02 04:58:01;;;;;;;1.50;1.08;;;22.50;28.80;;;;;;5015723;28;20057;-47
2021/05/02 05:00:28;;;;;;;0.65;0.65;;;22.60;28.80;;;;;;5017246;28;20101;-49
2021/05/02 05:02:58;;;;;;;1.20;0.60;;;22.50;28.80;;;;;;5017445;28;20447;-46
2021/05/02 05:05:24;;;;;;;1.20;0.65;;;22.50;28.80;;;;;;5017280;28;20469;-47
2021/05/02 05:07:50;;;;;;;0.95;0.57;;;22.50;28.70;;;;;;5017575;28;20041;-49
2021/05/02 05:10:16;;;;;;;1.00;0.50;;;22.50;28.80;;;;;;5016776;28;20029;-47
2021/05/02 05:12:43;;;;;;;1.02;0.60;;;22.60;28.80;;;;;;5016679;28;20457;-48
2021/05/02 05:15:10;;;;;;;1.30;0.80;;;22.50;28.80;;;;;;5017381;28;20109;-52
2021/05/02 05:17:36;;;;;;;0.82;0.50;;;22.50;28.70;;;;;;5016921;28;20084;-49
2021/05/02 05:20:04;;;;;;;2.92;0.70;;;22.50;28.70;;;;;;5016478;28;20036;-47
2021/05/02 05:22:30;;;;;;;5.30;0.80;;;22.50;28.80;;;;;;5016593;28;20021;-48
2021/05/02 05:24:57;;;;;;;1.17;0.68;;;22.60;29.00;;;;;;5016858;28;20044;-47
2021/05/02 05:27:23;;;;;;;0.65;0.50;;;22.60;29.40;;;;;;5016488;28;20052;-49
2021/05/02 05:29:49;;;;;;;1.00;0.50;;;22.60;28.90;;;;;;5016388;28;20112;-47
2021/05/02 05:32:15;;;;;;;1.70;0.50;;;22.60;28.90;;;;;;5015975;28;20117;-49
2021/05/02 05:34:41;;;;;;;0.95;0.50;;;22.60;28.90;;;;;;5011821;28;20408;-46
2021/05/02 05:37:07;;;;;;;1.10;0.57;;;22.60;28.90;;;;;;5016786;28;20041;-46
2021/05/02 05:39:32;;;;;;;0.65;0.45;;;22.50;28.80;;;;;;5017089;28;20100;-44
2021/05/02 05:41:58;;;;;;;1.55;0.60;;;22.50;28.80;;;;;;5016266;28;20030;-45
2021/05/02 05:44:24;;;;;;;1.92;0.60;;;22.50;28.80;;;;;;5015711;28;20088;-52
2021/05/02 05:46:50;;;;;;;1.52;0.60;;;22.50;28.80;;;;;;5016301;28;20053;-52
2021/05/02 05:49:18;;;;;;;1.50;0.60;;;22.60;28.80;;;;;;5004271;28;20038;-51
2021/05/02 05:51:46;;;;;;;0.60;0.40;;;22.50;28.80;;;;;;5009977;28;20025;-49
2021/05/02 05:54:12;;;;;;;1.33;0.57;;;22.50;28.80;;;;;;5016224;28;20100;-47
2021/05/02 05:56:38;;;;;;;0.60;0.52;;;22.50;28.80;;;;;;5016192;28;20050;-53
2021/05/02 05:59:04;;;;;;;1.30;0.52;;;22.50;28.80;;;;;;5015488;28;20429;-54
2021/05/02 06:01:30;;;;;;;1.38;0.60;;;22.50;28.90;;;;;;5014660;28;20037;-47
2021/05/02 06:03:57;;;;;;;1.60;0.60;;;22.50;28.90;;;;;;5016126;28;20034;-49
2021/05/02 06:06:22;;;;;;;0.88;0.57;;;22.50;28.90;;;;;;5015767;28;20089;-46
2021/05/02 06:08:48;;;;;;;0.63;0.35;;;22.50;28.90;;;;;;5011805;28;20050;-46
2021/05/02 06:11:14;;;;;;;0.82;0.60;;;22.50;28.90;;;;;;5015351;28;20441;-45
2021/05/02 06:13:40;;;;;;;1.40;0.70;;;22.50;28.90;;;;;;5003529;28;20033;-47
2021/05/02 06:16:06;;;;;;;0.70;0.40;;;22.50;28.90;;;;;;5014634;28;20488;-49
2021/05/02 06:18:31;;;;;;;0.90;0.40;;;22.50;29.00;;;;;;5015774;28;20349;-46
2021/05/02 06:20:57;;;;;;;2.08;0.60;;;22.50;29.00;;;;;;5014133;28;20044;-46
2021/05/02 06:23:23;;;;;;;1.02;0.30;;;22.50;29.00;;;;;;5014912;28;20313;-47
2021/05/02 06:25:49;;;;;;;1.15;0.60;;;22.50;29.00;;;;;;5015476;28;20045;-48
2021/05/02 06:28:15;;;;;;;1.02;0.50;;;22.50;29.00;;;;;;5014966;28;20029;-49
2021/05/02 06:30:41;;;;;;;1.17;0.50;;;22.50;29.00;;;;;;5013946;28;20115;-47
2021/05/02 06:33:06;;;;;;;0.43;0.40;;;22.50;29.00;;;;;;5015262;28;20030;-46
2021/05/02 06:35:32;;;;;;;0.93;0.50;;;22.50;28.90;;;;;;5015498;28;20422;-46
2021/05/02 06:37:58;;;;;;;1.70;0.60;;;22.50;28.90;;;;;;5014925;28;20444;-47
2021/05/02 06:40:24;;;;;;;0.93;0.50;;;22.50;28.90;;;;;;5015389;28;20501;-47
2021/05/02 06:42:50;;;;;;;0.47;0.30;;;22.50;28.90;;;;;;5014758;28;20581;-48
2021/05/02 06:45:16;;;;;;;1.65;0.65;;;22.50;28.90;;;;;;5012012;28;20045;-47
2021/05/02 06:47:43;;;;;;;0.95;0.43;;;22.40;28.90;;;;;;5012730;28;20472;-46
2021/05/02 06:50:09;;;;;;;1.58;0.70;;;22.40;28.90;;;;;;5014247;28;20606;-46
2021/05/02 06:52:35;;;;;;;1.13;0.57;;;22.40;28.90;;;;;;5015239;28;20025;-48
2021/05/02 06:55:01;;;;;;;1.65;0.60;;;22.30;28.90;;;;;;5013141;28;20515;-49
2021/05/02 06:57:26;;;;;;;0.75;0.55;;;22.30;29.00;;;;;;5014493;28;20116;-48
2021/05/02 06:59:52;;;;;;;1.13;0.60;;;22.30;29.00;;;;;;5012111;28;20064;-44
2021/05/02 07:02:18;;;;;;;1.65;0.60;;;22.30;29.00;;;;;;5012791;28;20147;-50
2021/05/02 07:04:44;;;;;;;0.88;0.60;;;22.20;29.00;;;;;;5010780;28;20034;-52
2021/05/02 07:07:10;;;;;;;2.08;0.70;;;22.30;29.10;;;;;;5013434;28;20050;-50
2021/05/02 07:09:36;;;;;;;0.85;0.43;;;22.30;29.10;;;;;;5013361;28;20425;-51
2021/05/02 07:12:02;;;;;;;0.77;0.60;;;22.40;29.10;;;;;;5012713;28;20025;-47
2021/05/02 07:14:28;;;;;;;1.33;0.43;;;22.40;29.00;;;;;;5012239;28;20029;-53
2021/05/02 07:16:54;;;;;;;1.30;0.50;;;22.40;29.00;;;;;;4995314;28;20034;-50
2021/05/02 07:19:21;;;;;;;1.30;0.60;;;22.40;28.90;;;;;;5009986;28;20022;-49
2021/05/02 07:21:47;;;;;;;1.58;0.40;;;22.40;28.90;;;;;;5014911;28;20029;-51
2021/05/02 07:24:16;;;;;;;0.47;0.40;;;22.40;28.80;;;;;;5013041;28;20047;-52
2021/05/02 07:26:42;;;;;;;1.30;0.60;;;22.50;28.80;;;;;;5014699;28;20377;-51
2021/05/02 07:29:08;;;;;;;0.77;0.43;;;22.60;28.70;;;;;;5013077;28;20029;-52
2021/05/02 07:31:34;;;;;;;0.90;0.68;;;22.70;28.60;;;;;;5014693;28;20430;-52
2021/05/02 07:34:00;;;;;;;0.85;0.40;;;22.80;28.60;;;;;;5013935;28;20032;-52
2021/05/02 07:36:25;;;;;;;0.90;0.50;;;22.90;28.50;;;;;;5014405;28;20136;-53
2021/05/02 07:38:51;;;;;;;1.17;0.40;;;23.00;28.40;;;;;;5013535;28;20064;-51
2021/05/02 07:41:17;;;;;;;1.25;0.40;;;23.00;28.30;;;;;;5014248;28;20041;-53
2021/05/02 07:43:43;;;;;;;0.60;0.35;;;23.10;28.20;;;;;;5014424;28;20036;-53
2021/05/02 07:46:09;;;;;;;0.98;0.50;;;23.20;28.10;;;;;;5013247;28;20434;-54
2021/05/02 07:48:35;;;;;;;1.75;0.50;;;23.30;28.10;;;;;;5013704;28;20116;-50
2021/05/02 07:51:02;;;;;;;0.65;0.40;;;23.40;28.00;;;;;;5013971;28;20349;-53
2021/05/02 07:53:28;;;;;;;0.55;0.40;;;23.50;27.90;;;;;;5012762;28;20026;-51
2021/05/02 07:55:54;;;;;;;0.50;0.40;;;23.50;27.80;;;;;;5013536;28;20037;-51
2021/05/02 07:58:19;;;;;;;1.10;0.50;;;23.60;27.60;;;;;;5013693;28;20425;-54
2021/05/02 08:00:45;;;;;;;1.23;0.50;;;23.70;27.50;;;;;;5014414;28;20361;-54
2021/05/02 08:03:11;;;;;;;0.85;0.60;;;23.80;27.50;;;;;;5013928;28;20061;-49
2021/05/02 08:05:37;;;;;;;1.40;0.95;;;24.00;27.40;;;;;;5013504;28;20048;-49
2021/05/02 08:08:03;;;;;;;1.52;0.90;;;24.00;27.30;;;;;;5013570;28;20045;-46
2021/05/02 08:10:29;;;;;;;1.45;1.20;;;24.10;27.20;;;;;;5013984;28;20022;-50
2021/05/02 08:12:56;;;;;;;1.98;1.38;;;24.20;27.10;;;;;;5012395;28;20091;-49
2021/05/02 08:15:22;;;;;;;3.05;1.85;;;24.20;27.00;;;;;;5031233;28;20089;-47
2021/05/02 08:17:49;;;;;;;2.00;1.42;;;24.30;27.00;;;;;;5016648;28;20034;-47
2021/05/02 08:20:15;;;;;;;3.08;1.58;;;24.30;26.90;;;;;;5017200;28;20484;-49
2021/05/02 08:22:41;;;;;;;2.70;1.90;;;24.40;26.80;;;;;;5016443;28;20057;-46
2021/05/02 08:25:08;;;;;;;3.15;2.15;;;24.40;26.70;;;;;;5017927;28;20433;-50
2021/05/02 08:27:34;;;;;;;2.65;2.08;;;24.50;26.70;;;;;;5015727;28;20034;-50
2021/05/02 08:30:00;;;;;;;2.80;2.38;;;24.60;26.60;;;;;;5016166;28;20026;-45
2021/05/02 08:32:26;;;;;;;3.70;2.80;;;24.60;26.50;;;;;;5026811;28;20444;-56
2021/05/02 08:34:52;;;;;;;2.40;1.85;;;24.60;26.50;;;;;;5019762;28;20057;-60
2021/05/02 08:37:18;;;;;;;1.60;1.00;;;24.70;26.50;;;;;;5008695;28;20052;-61
2021/05/02 08:39:43;;;;;;;3.33;1.00;;;24.60;26.40;;;;;;5017255;28;20025;-61
2021/05/02 08:42:09;;;;;;;2.03;1.40;;;24.50;26.90;;;;;;5013030;28;20087;-59
2021/05/02 08:44:36;;;;;;;1.88;1.02;;;24.40;26.50;;;;;;5018247;28;20030;-59
2021/05/02 08:47:04;;;;;;;1.98;1.35;;;24.30;26.60;;;;;;5017544;28;20045;-44
2021/05/02 08:49:31;;;;;;;3.20;1.55;;;24.20;26.70;;;;;;5016526;28;20032;-49
2021/05/02 08:51:56;;;;;;;1.83;1.30;;;24.10;26.70;;;;;;5015411;28;20065;-51
2021/05/02 08:54:22;;;;;;;3.95;3.20;;;24.00;26.70;;;;;;5015131;28;20061;-49
2021/05/02 08:56:56;;;;;;;8.98;5.82;;;24.00;26.70;;;;;;5015244;28;20049;-55
2021/05/02 08:59:22;;;;;;;9.95;7.97;;;24.00;26.80;;;;;;5012525;28;20089;-53
2021/05/02 09:01:48;;;;;;;11.50;9.93;;;24.00;26.90;;;;;;5015467;28;20071;-49
2021/05/02 09:04:15;;;;;;;14.02;11.00;;;24.00;26.90;;;;;;5014320;28;20049;-46
2021/05/02 09:06:42;;;;;;;15.13;12.23;;;24.10;27.00;;;;;;5014165;28;20045;-48
2021/05/02 09:09:11;;;;;;;16.58;13.05;;;24.00;27.00;;;;;;5015221;28;20022;-47
2021/05/02 09:11:39;;;;;;;16.73;13.18;;;24.10;27.00;;;;;;5014058;28;20355;-47
2021/05/02 09:14:18;;;;;;;16.13;12.95;;;24.10;27.10;;;;;;5014139;28;20079;-51
2021/05/02 09:17:11;;;;;;;18.67;14.15;;;24.10;27.00;;;;;;5013818;28;20365;-51
2021/05/02 09:19:50;;;;;;;16.52;13.13;;;24.10;27.00;;;;;;5013850;28;20516;-48
2021/05/02 09:22:17;;;;;;;17.42;14.30;;;24.10;26.90;;;;;;5011980;28;20080;-51
2021/05/02 09:24:57;;;;;;;19.73;15.20;;;24.10;26.90;;;;;;5014065;28;20022;-59
2021/05/02 09:27:23;;;;;;;21.48;16.80;;;24.10;26.80;;;;;;5014905;28;20034;-53
2021/05/02 09:29:49;;;;;;;19.80;15.57;;;24.10;26.70;;;;;;5014106;28;20334;-56
2021/05/02 09:32:15;;;;;;;18.90;15.05;;;24.10;26.70;;;;;;5014289;28;20026;-53
2021/05/02 09:34:50;;;;;;;19.33;15.35;;;24.10;26.60;;;;;;5015227;28;20034;-52
2021/05/02 09:37:17;;;;;;;17.08;13.90;;;24.10;26.60;;;;;;5015007;28;20049;-56
2021/05/02 09:39:48;;;;;;;19.73;14.55;;;24.10;26.70;;;;;;5016297;28;20060;-55
2021/05/02 09:42:15;;;;;;;18.00;15.00;;;24.10;26.70;;;;;;5014358;28;20120;-55
2021/05/02 09:44:50;;;;;;;17.55;13.70;;;24.10;26.70;;;;;;5013987;28;20033;-56
2021/05/02 09:47:30;;;;;;;20.65;14.02;;;24.10;26.80;;;;;;5013314;28;20057;-56
2021/05/02 09:50:15;;;;;;;15.75;12.80;;;24.10;26.70;;;;;;5014337;28;20046;-54
2021/05/02 09:53:02;;;;;;;16.02;12.30;;;24.10;26.60;;;;;;5012963;28;20030;-52
2021/05/02 09:55:36;;;;;;;14.25;11.77;;;24.10;26.60;;;;;;5015346;28;20104;-63
2021/05/02 09:58:12;;;;;;;9.40;6.90;;;24.10;26.60;;;;;;5012932;28;20042;-63
2021/05/02 10:00:41;;;;;;;5.65;3.97;;;24.10;26.60;;;;;;5014606;28;20386;-56
2021/05/02 10:03:24;;;;;;;6.95;4.85;;;24.00;26.50;;;;;;5013424;28;20033;-56
2021/05/02 10:06:03;;;;;;;11.25;9.20;;;24.00;26.50;;;;;;5015135;28;20037;-55
2021/05/02 10:08:29;;;;;;;16.42;12.63;;;24.00;26.60;;;;;;5014516;28;20033;-53
2021/05/02 10:10:57;;;;;;;18.77;15.05;;;24.00;26.60;;;;;;5013169;28;20034;-53
2021/05/02 10:13:23;;;;;;;19.92;15.57;;;23.90;26.60;;;;;;5012905;28;20358;-54
2021/05/02 10:15:50;;;;;;;19.98;15.57;;;24.00;26.70;;;;;;5012313;28;20053;-55
2021/05/02 10:18:16;;;;;;;23.00;16.52;;;24.00;26.70;;;;;;5013034;28;20037;-55
2021/05/02 10:20:44;;;;;;;20.13;16.27;;;24.00;26.70;;;;;;5013813;28;20026;-54
2021/05/02 10:23:10;;;;;;;20.17;16.38;;;24.00;26.70;;;;;;5014168;28;20100;-57
2021/05/02 10:25:37;;;;;;;19.08;15.27;;;24.00;26.70;;;;;;5014980;28;20022;-54
2021/05/02 10:28:03;;;;;;;18.35;14.88;;;24.00;26.70;;;;;;5014666;28;20101;-56
2021/05/02 10:30:30;;;;;;;16.90;13.70;;;24.00;26.80;;;;;;5011743;28;20048;-55
2021/05/02 10:33:10;;;;;;;16.38;13.20;;;24.00;26.80;;;;;;5011607;28;20044;-56
2021/05/02 10:35:58;;;;;;;16.98;13.65;;;24.00;26.90;;;;;;5009904;28;20101;-55
2021/05/02 10:38:46;;;;;;;18.83;13.98;;;24.10;26.90;;;;;;5014426;28;20358;-50
2021/05/02 10:41:32;;;;;;;19.38;13.60;;;24.10;26.90;;;;;;5012865;28;20029;-52
2021/05/02 10:44:21;;;;;;;20.90;15.30;;;24.10;26.80;;;;;;5014131;28;20112;-51
2021/05/02 10:46:53;;;;;;;20.02;16.33;;;24.10;26.80;;;;;;5012868;28;20041;-54
2021/05/02 10:49:19;;;;;;;20.17;16.15;;;24.10;26.80;;;;;;5012469;28;20038;-53
2021/05/02 10:51:54;;;;;;;21.35;17.27;;;24.10;26.80;;;;;;5013704;28;20338;-48
2021/05/02 10:54:22;;;;;;;21.10;16.73;;;24.10;26.80;;;;;;5012358;28;20036;-54
2021/05/02 10:56:57;;;;;;;20.48;16.73;;;24.10;26.90;;;;;;5010799;28;20069;-52
2021/05/02 10:59:26;;;;;;;;;;;24.10;26.90;;;;;;5013557;28;20032;-46
2021/05/02 11:01:55;;;;;;;18.08;13.82;;;24.10;27.00;;;;;;5008424;28;19909;-56
2021/05/02 11:05:03;;;;;;;16.77;14.15;;;24.10;27.10;;;;;;5011221;28;20108;-53
2021/05/02 11:07:41;;;;;;;18.27;14.13;;;24.20;27.20;;;;;;4992446;28;20180;-53
2021/05/02 11:10:12;;;;;;;17.13;13.40;;;24.20;27.20;;;;;;5009705;28;20116;-55
2021/05/02 11:12:38;;;;;;;19.38;15.50;;;24.20;27.20;;;;;;5007707;28;20092;-58
2021/05/02 11:15:26;;;;;;;19.80;16.65;;;24.20;27.10;;;;;;5009088;28;20471;-57
2021/05/02 11:17:53;;;;;;;21.05;16.30;;;24.30;27.10;;;;;;5007247;28;20041;-59
2021/05/02 11:20:46;;;;;;;21.40;17.88;;;24.30;27.10;;;;;;5008941;28;20031;-58
2021/05/02 11:23:13;;;;;;;20.70;17.10;;;24.30;27.00;;;;;;5011107;28;20041;-60
2021/05/02 11:25:43;;;;;;;19.48;16.25;;;24.30;27.00;;;;;;5009818;28;20448;-59
2021/05/02 11:28:11;;;;;;;21.65;16.60;;;24.30;27.00;;;;;;5011232;28;20111;-57
2021/05/02 11:30:47;;;;;;;23.08;18.42;;;24.30;27.00;;;;;;5010433;28;20327;-53
2021/05/02 11:33:23;;;;;;;18.70;16.38;;;24.40;27.00;;;;;;5009181;28;20025;-59
2021/05/02 11:35:53;;;;;;;20.83;16.85;;;24.30;27.00;;;;;;5007279;28;20116;-61
2021/05/02 11:38:21;;;;;;;20.63;16.80;;;24.40;27.10;;;;;;5009813;28;20073;-58
2021/05/02 11:40:46;;;;;;;18.80;14.43;;;24.40;27.20;;;;;;5008084;28;20026;-61
2021/05/02 11:43:23;;;;;;;14.82;12.43;;;24.40;27.20;;;;;;5008608;28;20322;-59
2021/05/02 11:45:59;;;;;;;15.15;12.05;;;24.40;27.20;;;;;;5012590;28;20046;-61
2021/05/02 11:48:40;;;;;;;15.18;11.57;;;24.50;27.10;;;;;;5011699;28;20030;-56
2021/05/02 11:51:13;;;;;;;13.63;10.43;;;24.50;27.10;;;;;;5010149;28;20025;-59
2021/05/02 11:53:48;;;;;;;13.73;11.43;;;24.50;27.20;;;;;;5008905;28;20045;-52
2021/05/02 11:56:18;;;;;;;13.40;10.50;;;24.50;27.20;;;;;;5010423;28;20081;-58
2021/05/02 11:58:46;;;;;;;10.95;9.10;;;24.50;27.20;;;;;;5008521;28;20054;-64
2021/05/02 12:01:19;;;;;;;12.52;9.68;;;24.50;27.20;;;;;;5012249;28;20041;-57
2021/05/02 12:03:46;;;;;;;12.23;8.73;;;24.60;27.20;;;;;;5011513;28;20033;-60
2021/05/02 12:06:22;;;;;;;10.25;8.40;;;24.60;27.20;;;;;;5008438;28;20061;-55
2021/05/02 12:08:48;;;;;;;11.73;8.60;;;24.60;27.10;;;;;;5009990;28;20037;-59
2021/05/02 12:11:14;;;;;;;8.35;5.05;;;24.60;27.10;;;;;;5011299;28;20145;-50
2021/05/02 12:13:52;;;;;;;5.53;4.05;;;24.60;26.90;;;;;;5013771;28;20369;-53
2021/05/02 12:16:28;;;;;;;4.88;3.40;;;24.60;26.70;;;;;;5014194;28;20030;-52
2021/05/02 12:19:00;;;;;;;4.43;3.10;;;24.50;26.50;;;;;;4994660;28;20034;-51
2021/05/02 12:21:28;;;;;;;4.25;3.10;;;24.50;26.40;;;;;;5008981;28;20030;-51
2021/05/02 12:24:04;;;;;;;5.00;3.50;;;24.40;26.30;;;;;;5014320;28;20369;-51
2021/05/02 12:26:30;;;;;;;4.88;3.42;;;24.40;26.20;;;;;;5014089;28;20051;-50
2021/05/02 12:29:09;;;;;;;4.18;3.38;;;24.40;26.10;;;;;;5014217;28;20323;-47
2021/05/02 12:31:35;;;;;;;4.93;3.22;;;24.40;26.00;;;;;;5014181;28;20030;-49
2021/05/02 12:34:05;;;;;;;4.07;3.42;;;24.40;26.00;;;;;;5013729;28;20401;-51
2021/05/02 12:36:31;;;;;;;4.28;2.88;;;24.40;25.80;;;;;;5014126;28;20037;-50
2021/05/02 12:39:06;;;;;;;4.32;3.35;;;24.40;25.80;;;;;;5013046;28;20398;-47
2021/05/02 12:41:33;;;;;;;4.85;3.67;;;24.40;25.70;;;;;;5014107;28;20450;-51
2021/05/02 12:44:22;;;;;;;4.32;3.20;;;24.40;25.60;;;;;;5014169;28;20026;-52
2021/05/02 12:46:51;;;;;;;4.95;3.65;;;24.40;25.50;;;;;;5014174;28;20046;-54
2021/05/02 12:49:22;;;;;;;4.13;3.22;;;24.40;25.60;;;;;;5012353;28;20038;-49
2021/05/02 12:51:58;;;;;;;4.18;3.55;;;24.40;25.50;;;;;;5014071;28;20096;-48
2021/05/02 12:54:25;;;;;;;5.13;4.07;;;24.40;25.50;;;;;;5012591;28;20224;-52